Terminal Aerodrome Forecast
Issued by NWS Mt. Holly, NJ

Home | Current Version | Previous Version | Text Only | Print | Product List | Glossary On
Versions: 1 2 3 4 5 6 7 8 9 10 11 12
929
FTUS41 KPHI 230529
TAFTTN
TAF
KTTN 230529Z 2306/2406 VRB03KT P6SM SCT200
     FM230800 VRB03KT 4SM BR SCT200
     FM231000 VRB03KT 3/4SM BR OVC004
     FM231400 23004KT 4SM BR BKN008
     FM231600 24006KT P6SM BKN025
     FM231900 20006KT P6SM SCT040=

USA.gov is the U.S. government's official web portal to all federal, state and local government web resources and services.